Time;durP1;ratioP1;P1;durP2;ratioP2;P2;SDS_P1;SDS_P2;PMS_P1;PMS_P2;Temp;Humidity;BMP_temperature;BMP_pressure;BME280_temperature;BME280_humidity;BME280_pressure;Samples;Min_cycle;Max_cycle;Signal;HPM_P1;HPM_P2
2023/04/10 00:00:01;;;;;;;56.25;10.20;;;;;;;;;;5110933;28;20062;-41
2023/04/10 00:02:28;;;;;;;55.60;9.70;;;;;;;;;;5111024;28;20127;-42
2023/04/10 00:04:55;;;;;;;49.58;9.38;;;;;;;;;;5111693;28;20035;-41
2023/04/10 00:07:22;;;;;;;43.30;8.63;;;;;;;;;;5110990;28;20023;-42
2023/04/10 00:09:49;;;;;;;46.28;9.20;;;;;;;;;;5110760;28;20023;-44
2023/04/10 00:12:16;;;;;;;50.65;9.98;;;;;;;;;;5110944;28;20031;-41
2023/04/10 00:14:44;;;;;;;44.03;8.80;;;;;;;;;;5104273;28;20435;-41
2023/04/10 00:17:11;;;;;;;45.97;9.23;;;;;;;;;;5106587;28;20031;-41
2023/04/10 00:19:38;;;;;;;41.17;8.90;;;;;;;;;;5092893;28;20028;-42
2023/04/10 00:22:05;;;;;;;51.03;9.13;;;;;;;;;;5107727;28;20047;-42
2023/04/10 00:24:32;;;;;;;41.80;9.35;;;;;;;;;;5110811;28;20028;-41
2023/04/10 00:27:00;;;;;;;44.40;9.43;;;;;;;;;;5109944;28;20085;-41
2023/04/10 00:29:27;;;;;;;53.50;11.85;;;;;;;;;;5110028;28;20042;-44
2023/04/10 00:31:54;;;;;;;83.40;34.95;;;;;;;;;;5080393;28;20155;-42
2023/04/10 00:34:21;;;;;;;67.40;27.58;;;;;;;;;;5109878;28;20028;-42
2023/04/10 00:36:48;;;;;;;76.25;32.53;;;;;;;;;;5104401;28;20028;-42
2023/04/10 00:39:15;;;;;;;78.95;38.22;;;;;;;;;;5111626;28;20032;-42
2023/04/10 00:41:42;;;;;;;70.38;38.47;;;;;;;;;;5106710;28;20031;-42
2023/04/10 00:44:09;;;;;;;90.05;43.83;;;;;;;;;;5111141;28;20103;-42
2023/04/10 00:46:37;;;;;;;89.38;47.58;;;;;;;;;;5107738;28;20039;-42
2023/04/10 00:49:05;;;;;;;91.57;48.38;;;;;;;;;;5098487;28;20546;-42
2023/04/10 00:51:32;;;;;;;88.65;47.60;;;;;;;;;;5109547;28;20072;-42
2023/04/10 00:54:01;;;;;;;92.85;47.65;;;;;;;;;;5111579;28;20023;-42
2023/04/10 00:56:31;;;;;;;84.30;44.88;;;;;;;;;;5110417;28;20117;-42
2023/04/10 00:58:58;;;;;;;86.57;44.95;;;;;;;;;;5109981;28;20027;-42
2023/04/10 01:01:25;;;;;;;80.75;44.28;;;;;;;;;;5108349;28;20023;-42
2023/04/10 01:03:52;;;;;;;81.07;42.65;;;;;;;;;;5091173;28;20032;-44
2023/04/10 01:06:27;;;;;;;74.93;42.38;;;;;;;;;;5104637;28;20036;-42
2023/04/10 01:08:58;;;;;;;79.65;40.47;;;;;;;;;;5104022;28;20100;-42
2023/04/10 01:11:39;;;;;;;63.17;37.92;;;;;;;;;;5090903;28;20035;-41
2023/04/10 01:14:15;;;;;;;70.88;38.63;;;;;;;;;;5092876;28;20477;-44
2023/04/10 01:16:48;;;;;;;67.85;37.72;;;;;;;;;;5096961;28;20051;-42
2023/04/10 01:19:25;;;;;;;64.15;34.40;;;;;;;;;;5095419;28;20081;-42
2023/04/10 01:21:54;;;;;;;64.85;35.67;;;;;;;;;;5090429;28;20059;-42
2023/04/10 01:24:21;;;;;;;67.43;34.50;;;;;;;;;;5090622;28;20024;-42
2023/04/10 01:27:04;;;;;;;61.72;33.42;;;;;;;;;;5092599;28;20085;-42
2023/04/10 01:29:34;;;;;;;61.70;33.22;;;;;;;;;;5098708;28;20058;-42
2023/04/10 01:32:08;;;;;;;55.42;31.90;;;;;;;;;;5098525;28;20048;-42
2023/04/10 01:34:45;;;;;;;53.95;30.73;;;;;;;;;;5097055;28;20197;-42
2023/04/10 01:37:15;;;;;;;57.92;29.13;;;;;;;;;;5080596;28;20018;-41
2023/04/10 01:39:43;;;;;;;60.95;27.25;;;;;;;;;;5099283;28;20024;-42
2023/04/10 01:42:11;;;;;;;52.13;27.85;;;;;;;;;;5099072;28;20044;-41
2023/04/10 01:44:41;;;;;;;55.13;28.55;;;;;;;;;;5083127;28;20449;-42
2023/04/10 01:47:08;;;;;;;49.65;27.38;;;;;;;;;;5098588;28;20768;-45
2023/04/10 01:49:41;;;;;;;56.53;25.75;;;;;;;;;;5098725;28;20028;-42
2023/04/10 01:52:08;;;;;;;46.50;24.27;;;;;;;;;;5099122;28;20028;-42
2023/04/10 01:54:35;;;;;;;48.45;24.48;;;;;;;;;;5100196;28;20020;-42
2023/04/10 01:57:04;;;;;;;54.28;22.90;;;;;;;;;;5099312;28;20073;-42
2023/04/10 01:59:31;;;;;;;50.95;21.45;;;;;;;;;;5098748;28;20084;-42
2023/04/10 02:01:59;;;;;;;53.08;21.98;;;;;;;;;;5099108;28;20020;-42
2023/04/10 02:04:27;;;;;;;48.97;20.63;;;;;;;;;;5098432;28;20868;-42
2023/04/10 02:06:54;;;;;;;44.95;20.88;;;;;;;;;;5098257;28;20055;-42
2023/04/10 02:09:21;;;;;;;43.85;20.17;;;;;;;;;;5097730;28;20093;-41
2023/04/10 02:12:08;;;;;;;51.45;20.13;;;;;;;;;;5098764;28;20106;-42
2023/04/10 02:14:38;;;;;;;44.95;18.92;;;;;;;;;;5100674;28;20020;-41
2023/04/10 02:17:06;;;;;;;50.58;17.60;;;;;;;;;;5099380;28;20016;-42
2023/04/10 02:19:34;;;;;;;44.03;16.42;;;;;;;;;;5101444;28;20068;-42
2023/04/10 02:22:02;;;;;;;38.40;14.50;;;;;;;;;;5085096;28;20103;-42
2023/04/10 02:24:29;;;;;;;37.47;13.27;;;;;;;;;;5102186;28;20559;-42
2023/04/10 02:26:56;;;;;;;35.53;14.05;;;;;;;;;;5102509;28;20039;-41
2023/04/10 02:29:23;;;;;;;37.70;14.48;;;;;;;;;;5100299;28;20075;-44
2023/04/10 02:31:50;;;;;;;36.30;12.35;;;;;;;;;;5102099;28;20048;-42
2023/04/10 02:34:17;;;;;;;33.47;12.57;;;;;;;;;;5104211;28;20057;-42
2023/04/10 02:36:44;;;;;;;38.30;12.63;;;;;;;;;;5102989;28;20077;-43
2023/04/10 02:39:11;;;;;;;28.67;12.15;;;;;;;;;;5102104;28;20172;-42
2023/04/10 02:41:38;;;;;;;32.15;11.45;;;;;;;;;;5096757;28;20080;-42
2023/04/10 02:44:06;;;;;;;37.45;11.60;;;;;;;;;;5102952;28;20015;-42
2023/04/10 02:46:33;;;;;;;26.40;9.98;;;;;;;;;;5103989;28;20034;-42
2023/04/10 02:49:01;;;;;;;28.85;11.07;;;;;;;;;;5101872;28;20039;-42
2023/04/10 02:51:28;;;;;;;27.58;10.10;;;;;;;;;;5102747;28;20489;-42
2023/04/10 02:53:55;;;;;;;25.33;9.13;;;;;;;;;;5101983;28;20051;-41
2023/04/10 02:56:22;;;;;;;28.40;10.10;;;;;;;;;;5104697;28;20027;-42
2023/04/10 02:58:49;;;;;;;26.27;9.75;;;;;;;;;;5102232;28;20027;-42
2023/04/10 03:01:16;;;;;;;24.40;9.07;;;;;;;;;;5085151;28;20398;-42
2023/04/10 03:03:43;;;;;;;19.05;8.27;;;;;;;;;;5096949;28;20099;-42
2023/04/10 03:06:11;;;;;;;30.42;9.05;;;;;;;;;;5100930;28;20504;-42
2023/04/10 03:08:38;;;;;;;20.60;7.05;;;;;;;;;;5093364;28;20185;-42
2023/04/10 03:11:05;;;;;;;23.85;7.70;;;;;;;;;;5093449;28;20024;-41
2023/04/10 03:13:32;;;;;;;18.35;7.40;;;;;;;;;;5093781;28;20034;-41
2023/04/10 03:15:59;;;;;;;20.25;7.55;;;;;;;;;;5093656;28;20795;-42
2023/04/10 03:18:26;;;;;;;26.45;8.02;;;;;;;;;;5093720;28;20039;-42
2023/04/10 03:20:53;;;;;;;17.75;8.27;;;;;;;;;;5093379;28;20028;-41
2023/04/10 03:23:20;;;;;;;15.95;7.10;;;;;;;;;;5093601;28;20389;-41
2023/04/10 03:25:52;;;;;;;17.48;6.72;;;;;;;;;;5093247;28;20100;-41
2023/04/10 03:28:19;;;;;;;18.13;6.57;;;;;;;;;;5093357;28;20034;-42
2023/04/10 03:30:46;;;;;;;19.77;6.68;;;;;;;;;;5092600;28;20028;-42
2023/04/10 03:33:13;;;;;;;19.92;6.38;;;;;;;;;;5112183;28;20048;-42
2023/04/10 03:35:40;;;;;;;18.88;6.00;;;;;;;;;;5113582;28;20027;-42
2023/04/10 03:38:07;;;;;;;21.55;5.97;;;;;;;;;;5113842;28;20034;-42
2023/04/10 03:40:34;;;;;;;16.55;5.93;;;;;;;;;;5113664;28;20094;-42
2023/04/10 03:43:02;;;;;;;18.65;5.72;;;;;;;;;;5113651;28;20019;-42
2023/04/10 03:45:28;;;;;;;17.27;6.03;;;;;;;;;;5113512;28;20058;-42
2023/04/10 03:47:55;;;;;;;18.35;5.57;;;;;;;;;;5113343;28;20080;-42
2023/04/10 03:50:22;;;;;;;18.52;5.38;;;;;;;;;;5095163;28;20431;-42
2023/04/10 03:52:51;;;;;;;13.38;5.50;;;;;;;;;;5113473;28;20020;-42
2023/04/10 03:55:18;;;;;;;14.10;5.10;;;;;;;;;;5113112;28;20077;-42
2023/04/10 03:57:45;;;;;;;16.00;4.93;;;;;;;;;;5113332;28;20027;-42
2023/04/10 04:00:16;;;;;;;10.70;4.60;;;;;;;;;;5113128;28;20022;-42
2023/04/10 04:02:43;;;;;;;17.30;5.45;;;;;;;;;;5113321;28;20016;-42
2023/04/10 04:05:10;;;;;;;15.82;5.28;;;;;;;;;;5113160;28;20020;-42
2023/04/10 04:07:37;;;;;;;12.88;4.53;;;;;;;;;;5113068;28;20575;-42
2023/04/10 04:10:04;;;;;;;17.70;5.43;;;;;;;;;;5112886;28;20443;-42
2023/04/10 04:12:31;;;;;;;11.82;5.00;;;;;;;;;;5113089;28;20080;-42
2023/04/10 04:14:58;;;;;;;15.68;4.93;;;;;;;;;;5112892;28;20482;-42
2023/04/10 04:17:25;;;;;;;11.95;4.78;;;;;;;;;;5112931;28;20033;-42
2023/04/10 04:19:52;;;;;;;13.95;4.38;;;;;;;;;;5112793;28;20062;-42
2023/04/10 04:22:20;;;;;;;11.43;4.88;;;;;;;;;;5112663;28;20113;-42
2023/04/10 04:24:47;;;;;;;14.15;4.38;;;;;;;;;;5112744;28;20148;-42
2023/04/10 04:27:14;;;;;;;10.75;3.97;;;;;;;;;;5112664;28;20381;-42
2023/04/10 04:29:41;;;;;;;12.80;4.57;;;;;;;;;;5112633;28;20499;-42
2023/04/10 04:32:08;;;;;;;9.57;3.95;;;;;;;;;;5112390;28;20048;-42
2023/04/10 04:34:35;;;;;;;7.97;3.90;;;;;;;;;;5112670;28;20043;-42
2023/04/10 04:37:04;;;;;;;8.80;4.05;;;;;;;;;;5112612;28;20489;-42
2023/04/10 04:39:31;;;;;;;10.77;3.80;;;;;;;;;;5112464;28;20385;-42
2023/04/10 04:41:58;;;;;;;9.95;3.70;;;;;;;;;;5111584;28;20034;-42
2023/04/10 04:44:25;;;;;;;10.40;3.35;;;;;;;;;;5112310;28;20099;-42
2023/04/10 04:46:52;;;;;;;5.63;2.67;;;;;;;;;;5112365;28;20024;-42
2023/04/10 04:49:19;;;;;;;8.77;3.33;;;;;;;;;;5112213;28;20032;-42
2023/04/10 04:51:45;;;;;;;9.05;3.03;;;;;;;;;;5112394;28;20374;-42
2023/04/10 04:54:12;;;;;;;7.57;3.35;;;;;;;;;;5112461;28;20023;-42
2023/04/10 04:56:39;;;;;;;9.60;3.05;;;;;;;;;;5112279;28;20077;-42
2023/04/10 04:59:06;;;;;;;6.57;2.20;;;;;;;;;;5112225;28;20028;-42
2023/04/10 05:01:33;;;;;;;12.93;2.03;;;;;;;;;;5111969;28;20427;-41
2023/04/10 05:04:00;;;;;;;12.70;2.45;;;;;;;;;;5112163;28;20072;-41
2023/04/10 05:06:27;;;;;;;13.40;2.70;;;;;;;;;;5112265;28;20937;-41
2023/04/10 05:08:54;;;;;;;13.88;2.25;;;;;;;;;;5112043;28;20027;-41
2023/04/10 05:11:21;;;;;;;11.73;2.20;;;;;;;;;;5112070;28;20039;-41
2023/04/10 05:13:48;;;;;;;10.07;2.45;;;;;;;;;;5111944;28;20027;-42
2023/04/10 05:16:15;;;;;;;16.67;2.30;;;;;;;;;;5112023;28;20100;-42
2023/04/10 05:18:42;;;;;;;13.65;2.28;;;;;;;;;;5112011;28;20035;-42
2023/04/10 05:21:09;;;;;;;14.40;2.58;;;;;;;;;;5112136;28;20099;-41
2023/04/10 05:23:36;;;;;;;16.73;2.55;;;;;;;;;;5112155;28;20028;-42
2023/04/10 05:26:04;;;;;;;16.48;2.25;;;;;;;;;;5111913;28;20102;-41
2023/04/10 05:28:32;;;;;;;6.88;1.90;;;;;;;;;;5111704;28;20634;-42
2023/04/10 05:30:59;;;;;;;12.27;2.38;;;;;;;;;;5111892;28;20059;-41
2023/04/10 05:33:26;;;;;;;15.50;2.35;;;;;;;;;;5111949;28;20510;-42
2023/04/10 05:35:53;;;;;;;16.30;2.95;;;;;;;;;;5112014;28;20015;-41
2023/04/10 05:38:20;;;;;;;21.15;3.17;;;;;;;;;;5093564;28;20366;-41
2023/04/10 05:40:47;;;;;;;19.70;2.80;;;;;;;;;;5111640;28;20023;-42
2023/04/10 05:43:14;;;;;;;20.75;3.30;;;;;;;;;;5111617;28;20045;-41
2023/04/10 05:45:44;;;;;;;14.75;2.42;;;;;;;;;;5111807;28;20024;-41
2023/04/10 05:48:11;;;;;;;18.83;3.40;;;;;;;;;;5111509;28;20038;-41
2023/04/10 05:50:38;;;;;;;16.48;2.60;;;;;;;;;;5111680;28;20027;-41
2023/04/10 05:53:05;;;;;;;18.35;2.85;;;;;;;;;;5113340;28;20371;-41
2023/04/10 05:55:32;;;;;;;15.95;2.60;;;;;;;;;;5115750;28;20106;-41
2023/04/10 05:57:59;;;;;;;11.73;3.08;;;;;;;;;;5115746;28;20038;-41
2023/04/10 06:00:26;;;;;;;21.05;3.35;;;;;;;;;;5115454;28;20031;-41
2023/04/10 06:02:53;;;;;;;24.73;3.33;;;;;;;;;;5113710;28;20032;-41
2023/04/10 06:05:20;;;;;;;18.58;3.15;;;;;;;;;;5115287;28;20058;-41
2023/04/10 06:07:47;;;;;;;21.55;3.10;;;;;;;;;;5115333;28;20024;-41
2023/04/10 06:10:14;;;;;;;27.90;3.40;;;;;;;;;;5115405;28;20055;-41
2023/04/10 06:12:41;;;;;;;16.55;3.38;;;;;;;;;;5115296;28;20020;-42
2023/04/10 06:15:08;;;;;;;14.50;2.70;;;;;;;;;;5115402;28;20023;-41
2023/04/10 06:17:35;;;;;;;18.88;3.40;;;;;;;;;;5115179;28;20020;-41
2023/04/10 06:20:05;;;;;;;21.95;3.97;;;;;;;;;;5115204;28;20080;-41
2023/04/10 06:22:32;;;;;;;30.38;4.00;;;;;;;;;;5115072;28;20035;-41
2023/04/10 06:24:59;;;;;;;16.73;3.22;;;;;;;;;;5115042;28;20024;-41
2023/04/10 06:27:27;;;;;;;17.70;3.38;;;;;;;;;;5115048;28;20020;-41
2023/04/10 06:29:54;;;;;;;20.88;3.50;;;;;;;;;;5115000;28;20027;-41
2023/04/10 06:32:21;;;;;;;22.70;3.67;;;;;;;;;;5114745;28;20134;-41
2023/04/10 06:34:48;;;;;;;20.95;3.67;;;;;;;;;;5114832;28;20108;-41
2023/04/10 06:37:14;;;;;;;25.08;3.45;;;;;;;;;;5114911;28;20050;-41
2023/04/10 06:39:42;;;;;;;16.02;3.40;;;;;;;;;;5114721;28;20031;-42
2023/04/10 06:42:09;;;;;;;16.83;3.00;;;;;;;;;;5114774;28;20110;-41
2023/04/10 06:44:36;;;;;;;16.35;3.15;;;;;;;;;;5114751;28;20077;-41
2023/04/10 06:47:05;;;;;;;21.13;4.07;;;;;;;;;;5114768;28;20379;-41
2023/04/10 06:49:32;;;;;;;22.75;3.40;;;;;;;;;;5114403;28;20071;-41
2023/04/10 06:51:59;;;;;;;14.88;3.03;;;;;;;;;;5114777;28;20068;-42
2023/04/10 06:54:26;;;;;;;16.63;3.70;;;;;;;;;;5114615;28;20043;-41
2023/04/10 06:56:57;;;;;;;14.20;3.47;;;;;;;;;;5114601;28;20023;-41
2023/04/10 06:59:24;;;;;;;18.52;4.13;;;;;;;;;;5114229;28;20039;-41
2023/04/10 07:01:51;;;;;;;14.35;3.30;;;;;;;;;;5114605;28;20024;-41
2023/04/10 07:04:18;;;;;;;12.95;3.35;;;;;;;;;;5113282;27;20031;-41
2023/04/10 07:06:45;;;;;;;13.55;3.13;;;;;;;;;;5114457;28;20503;-41
2023/04/10 07:09:12;;;;;;;11.88;2.95;;;;;;;;;;5114131;28;20028;-41
2023/04/10 07:11:39;;;;;;;16.15;3.40;;;;;;;;;;5114463;28;20034;-41
2023/04/10 07:14:06;;;;;;;20.00;3.80;;;;;;;;;;5113004;28;20061;-41
2023/04/10 07:16:33;;;;;;;18.13;3.30;;;;;;;;;;5114330;28;20019;-41
2023/04/10 07:19:00;;;;;;;18.33;3.65;;;;;;;;;;5114095;28;20032;-41
2023/04/10 07:21:27;;;;;;;15.73;3.20;;;;;;;;;;5114025;28;20443;-41
2023/04/10 07:23:54;;;;;;;12.27;3.20;;;;;;;;;;5114102;28;20024;-41
2023/04/10 07:26:21;;;;;;;19.92;3.38;;;;;;;;;;5114083;27;20023;-43
2023/04/10 07:28:48;;;;;;;15.85;3.63;;;;;;;;;;5112335;28;20074;-41
2023/04/10 07:31:16;;;;;;;17.75;3.20;;;;;;;;;;5115907;27;20051;-41
2023/04/10 07:33:45;;;;;;;11.23;2.97;;;;;;;;;;5134162;27;20020;-41
2023/04/10 07:36:12;;;;;;;16.05;2.78;;;;;;;;;;5134439;27;20032;-41
2023/04/10 07:38:39;;;;;;;13.18;3.03;;;;;;;;;;5134362;27;20441;-41
2023/04/10 07:41:06;;;;;;;14.82;2.58;;;;;;;;;;5134272;27;20073;-41
2023/04/10 07:43:33;;;;;;;20.23;3.10;;;;;;;;;;5134092;27;20011;-41
2023/04/10 07:46:00;;;;;;;14.15;3.20;;;;;;;;;;5134094;27;20024;-42
2023/04/10 07:48:27;;;;;;;11.40;3.22;;;;;;;;;;5133943;27;20031;-41
2023/04/10 07:50:54;;;;;;;16.20;2.92;;;;;;;;;;5134153;27;20028;-41
2023/04/10 07:53:21;;;;;;;10.20;2.75;;;;;;;;;;5133920;27;20082;-41
2023/04/10 07:55:49;;;;;;;10.65;2.95;;;;;;;;;;5133917;27;20023;-41
2023/04/10 07:58:16;;;;;;;13.32;3.33;;;;;;;;;;5133942;27;20520;-41
2023/04/10 08:00:43;;;;;;;12.25;2.90;;;;;;;;;;5133818;27;20022;-41
2023/04/10 08:03:12;;;;;;;7.75;2.42;;;;;;;;;;5133824;27;20027;-41
2023/04/10 08:05:39;;;;;;;12.60;3.53;;;;;;;;;;5133652;27;20023;-41
2023/04/10 08:08:06;;;;;;;11.90;2.80;;;;;;;;;;5133390;27;20027;-41
2023/04/10 08:10:33;;;;;;;12.45;2.88;;;;;;;;;;5133565;27;20434;-41
2023/04/10 08:13:00;;;;;;;11.95;3.38;;;;;;;;;;5133566;27;20027;-41
2023/04/10 08:15:27;;;;;;;10.50;2.65;;;;;;;;;;5133449;27;20031;-41
2023/04/10 08:17:54;;;;;;;10.77;3.17;;;;;;;;;;5133805;27;20031;-41
2023/04/10 08:20:21;;;;;;;9.20;2.33;;;;;;;;;;5133435;27;20099;-41
2023/04/10 08:22:48;;;;;;;11.02;2.90;;;;;;;;;;5133463;27;20090;-41
2023/04/10 08:25:15;;;;;;;13.50;2.38;;;;;;;;;;5133295;27;20019;-41
2023/04/10 08:27:42;;;;;;;8.68;2.75;;;;;;;;;;5133159;27;20019;-41
2023/04/10 08:30:09;;;;;;;16.45;3.33;;;;;;;;;;5114658;27;20496;-41
2023/04/10 08:32:36;;;;;;;13.05;2.63;;;;;;;;;;5133197;27;20421;-41
2023/04/10 08:35:03;;;;;;;14.70;2.80;;;;;;;;;;5133214;27;20031;-40
2023/04/10 08:37:30;;;;;;;10.05;2.60;;;;;;;;;;5133359;27;20112;-41
2023/04/10 08:39:57;;;;;;;11.05;2.50;;;;;;;;;;5133109;27;20379;-41
2023/04/10 08:42:25;;;;;;;16.52;3.40;;;;;;;;;;5133241;27;20476;-41
2023/04/10 08:44:52;;;;;;;12.27;2.85;;;;;;;;;;5133102;27;20476;-41
2023/04/10 08:47:21;;;;;;;12.57;3.00;;;;;;;;;;5132887;27;20029;-41
2023/04/10 08:49:53;;;;;;;13.20;2.95;;;;;;;;;;5132869;27;20049;-41
2023/04/10 08:52:30;;;;;;;12.82;3.00;;;;;;;;;;5132996;27;20029;-41
2023/04/10 08:54:59;;;;;;;10.23;2.30;;;;;;;;;;5132616;27;20577;-41
2023/04/10 08:57:26;;;;;;;10.77;2.80;;;;;;;;;;5132911;27;20031;-41
2023/04/10 08:59:53;;;;;;;17.42;3.35;;;;;;;;;;5132792;27;20098;-41
2023/04/10 09:02:20;;;;;;;12.35;2.67;;;;;;;;;;5132799;27;20023;-41
2023/04/10 09:04:49;;;;;;;11.38;2.80;;;;;;;;;;5132831;27;20031;-41
2023/04/10 09:21:15;;;;;;;11.85;2.63;;;;;;;;;;5150427;27;20321;-36
2023/04/10 09:23:43;;;;;;;13.70;2.67;;;;;;;;;;5150506;27;20034;-36
2023/04/10 09:26:23;;;;;;;10.13;3.17;;;;;;;;;;5149906;27;20023;-36
2023/04/10 09:29:00;;;;;;;11.38;2.75;;;;;;;;;;5148664;27;20096;-36
2023/04/10 09:31:29;;;;;;;15.20;3.00;;;;;;;;;;5150066;27;20023;-36
2023/04/10 09:34:15;;;;;;;11.93;2.25;;;;;;;;;;5149950;27;20435;-37
2023/04/10 09:36:43;;;;;;;12.15;2.65;;;;;;;;;;5149520;27;20099;-36
2023/04/10 09:39:11;;;;;;;10.18;3.25;;;;;;;;;;5149797;27;20031;-37
2023/04/10 09:41:47;;;;;;;12.13;2.83;;;;;;;;;;5150184;27;20054;-36
2023/04/10 09:44:14;;;;;;;11.38;3.03;;;;;;;;;;5150053;27;20039;-36
2023/04/10 09:46:41;;;;;;;12.88;3.17;;;;;;;;;;5150112;27;20072;-37
2023/04/10 09:49:08;;;;;;;12.48;2.75;;;;;;;;;;5149868;27;20038;-36
2023/04/10 09:51:36;;;;;;;13.15;2.95;;;;;;;;;;5150080;27;20114;-36
2023/04/10 09:54:03;;;;;;;15.73;3.08;;;;;;;;;;5149923;27;20489;-36
2023/04/10 09:56:31;;;;;;;11.13;2.67;;;;;;;;;;5149955;27;20396;-36
2023/04/10 09:58:59;;;;;;;14.40;2.88;;;;;;;;;;5149797;27;20039;-36
2023/04/10 10:01:28;;;;;;;11.15;2.85;;;;;;;;;;5149593;27;20468;-36
2023/04/10 10:03:56;;;;;;;12.20;3.22;;;;;;;;;;5149517;27;20069;-37
2023/04/10 10:06:23;;;;;;;17.88;3.47;;;;;;;;;;5149702;27;20027;-36
2023/04/10 10:08:50;;;;;;;17.33;3.05;;;;;;;;;;5149916;27;20035;-36
2023/04/10 10:11:25;;;;;;;19.70;3.40;;;;;;;;;;5149592;27;20531;-36
2023/04/10 10:13:57;;;;;;;16.15;3.70;;;;;;;;;;5149574;27;20050;-36
2023/04/10 10:16:29;;;;;;;16.70;3.17;;;;;;;;;;5149745;27;20053;-37
2023/04/10 10:19:03;;;;;;;17.35;3.45;;;;;;;;;;5148294;27;20015;-37
2023/04/10 10:21:32;;;;;;;14.73;2.92;;;;;;;;;;5139416;27;20033;-37
2023/04/10 10:24:00;;;;;;;17.70;3.40;;;;;;;;;;5135434;27;20034;-37
2023/04/10 10:26:28;;;;;;;13.80;2.80;;;;;;;;;;5135225;27;20385;-37
2023/04/10 10:28:56;;;;;;;15.35;3.70;;;;;;;;;;5133799;27;20031;-37
2023/04/10 10:31:24;;;;;;;18.80;3.33;;;;;;;;;;5134632;27;20030;-37
2023/04/10 10:33:52;;;;;;;29.08;4.15;;;;;;;;;;5134567;27;20050;-37
2023/04/10 10:36:20;;;;;;;18.63;3.30;;;;;;;;;;5134579;27;20031;-37
2023/04/10 10:38:57;;;;;;;15.63;3.10;;;;;;;;;;5135014;27;20066;-37
2023/04/10 10:41:37;;;;;;;16.77;3.70;;;;;;;;;;5135063;27;20031;-36
2023/04/10 10:44:13;;;;;;;19.15;3.45;;;;;;;;;;5135255;27;20027;-37
2023/04/10 10:47:03;;;;;;;24.20;3.58;;;;;;;;;;5135104;27;20019;-37
2023/04/10 10:49:48;;;;;;;19.60;3.83;;;;;;;;;;5134966;27;20054;-37
2023/04/10 10:52:14;;;;;;;18.23;3.58;;;;;;;;;;5134978;27;20031;-37
2023/04/10 10:54:41;;;;;;;13.55;3.05;;;;;;;;;;5134559;27;20027;-37
2023/04/10 10:57:28;;;;;;;15.32;3.63;;;;;;;;;;5134732;27;20035;-37
2023/04/10 10:59:56;;;;;;;16.33;3.33;;;;;;;;;;5134824;27;20035;-37
2023/04/10 11:02:23;;;;;;;15.40;3.50;;;;;;;;;;5134922;27;20055;-37
2023/04/10 11:04:50;;;;;;;15.68;3.50;;;;;;;;;;5134853;27;20031;-37
2023/04/10 11:07:18;;;;;;;16.55;3.45;;;;;;;;;;5134802;27;20548;-37
2023/04/10 11:09:56;;;;;;;18.80;3.65;;;;;;;;;;5134656;27;20034;-37
2023/04/10 11:12:25;;;;;;;18.00;3.28;;;;;;;;;;5133861;27;20460;-37
2023/04/10 11:15:00;;;;;;;17.98;3.50;;;;;;;;;;5126803;27;20441;-37
2023/04/10 11:17:45;;;;;;;15.73;3.28;;;;;;;;;;5133007;27;20037;-37
2023/04/10 11:20:12;;;;;;;16.85;3.97;;;;;;;;;;5124538;27;20586;-37
2023/04/10 11:22:57;;;;;;;21.08;3.28;;;;;;;;;;5134498;27;20441;-35
2023/04/10 11:25:44;;;;;;;19.95;3.47;;;;;;;;;;5133444;27;20086;-35
2023/04/10 11:28:11;;;;;;;15.18;3.80;;;;;;;;;;5131814;27;20043;-35
2023/04/10 11:30:39;;;;;;;21.73;3.05;;;;;;;;;;5125719;27;20043;-36
2023/04/10 11:33:06;;;;;;;18.20;3.78;;;;;;;;;;5131865;27;20049;-38
2023/04/10 11:35:34;;;;;;;15.70;3.78;;;;;;;;;;5132838;27;20027;-35
2023/04/10 11:38:10;;;;;;;23.70;3.60;;;;;;;;;;5132002;27;20496;-35
2023/04/10 11:40:53;;;;;;;15.75;3.10;;;;;;;;;;5113420;27;20039;-36
2023/04/10 11:43:20;;;;;;;18.90;3.50;;;;;;;;;;5112919;28;20027;-36
2023/04/10 11:45:47;;;;;;;26.20;3.60;;;;;;;;;;5116776;27;20106;-35
2023/04/10 11:48:16;;;;;;;17.90;3.83;;;;;;;;;;5124431;27;20027;-36
2023/04/10 11:50:43;;;;;;;18.58;3.63;;;;;;;;;;5113990;27;20083;-37
2023/04/10 11:53:22;;;;;;;22.45;3.80;;;;;;;;;;5114902;27;20480;-36
2023/04/10 11:55:50;;;;;;;23.98;4.03;;;;;;;;;;5123945;27;20476;-38
2023/04/10 11:58:27;;;;;;;27.88;4.25;;;;;;;;;;5126446;27;20027;-37
2023/04/10 12:01:02;;;;;;;22.30;3.20;;;;;;;;;;5121971;27;20027;-37
2023/04/10 12:03:32;;;;;;;27.10;4.18;;;;;;;;;;5119149;27;20028;-34
2023/04/10 12:05:59;;;;;;;24.55;3.95;;;;;;;;;;5118521;27;20023;-36
2023/04/10 12:08:33;;;;;;;29.58;4.53;;;;;;;;;;5112693;28;20024;-36
2023/04/10 12:11:00;;;;;;;20.60;4.40;;;;;;;;;;5130237;27;20038;-36
2023/04/10 12:13:28;;;;;;;30.58;4.07;;;;;;;;;;5132801;27;20027;-35
2023/04/10 12:15:58;;;;;;;32.88;4.43;;;;;;;;;;5132726;27;20365;-36
2023/04/10 12:18:26;;;;;;;29.35;3.97;;;;;;;;;;5132081;27;20031;-37
2023/04/10 12:20:55;;;;;;;27.48;3.65;;;;;;;;;;5124207;27;20047;-38
2023/04/10 12:23:23;;;;;;;19.92;3.40;;;;;;;;;;5114719;27;20031;-37
2023/04/10 12:25:50;;;;;;;31.42;4.68;;;;;;;;;;5122605;27;20677;-36
2023/04/10 12:28:21;;;;;;;18.67;3.50;;;;;;;;;;5122756;27;20067;-37
2023/04/10 12:30:49;;;;;;;30.42;4.65;;;;;;;;;;5121957;27;20108;-36
2023/04/10 12:33:21;;;;;;;20.98;4.10;;;;;;;;;;5122000;27;20019;-37
2023/04/10 12:35:47;;;;;;;26.58;4.45;;;;;;;;;;5117655;27;20034;-37
2023/04/10 12:38:15;;;;;;;27.73;4.28;;;;;;;;;;5122877;27;20039;-36
2023/04/10 12:41:00;;;;;;;23.25;4.53;;;;;;;;;;5112249;28;20030;-36
2023/04/10 12:43:32;;;;;;;31.35;4.55;;;;;;;;;;5112076;28;20028;-36
2023/04/10 12:45:59;;;;;;;21.00;4.00;;;;;;;;;;5117519;27;20038;-37
2023/04/10 12:48:26;;;;;;;33.45;4.60;;;;;;;;;;5123059;27;20632;-38
2023/04/10 12:50:53;;;;;;;25.35;4.07;;;;;;;;;;5112192;28;20370;-37
2023/04/10 12:53:20;;;;;;;15.43;3.58;;;;;;;;;;5114308;27;20032;-37
2023/04/10 12:55:58;;;;;;;24.52;4.43;;;;;;;;;;5111994;28;20076;-37
2023/04/10 12:58:30;;;;;;;27.55;4.20;;;;;;;;;;5112019;28;20042;-37
2023/04/10 13:01:02;;;;;;;22.38;3.95;;;;;;;;;;5111861;28;20043;-37
2023/04/10 13:03:30;;;;;;;23.20;3.90;;;;;;;;;;5112186;28;20058;-37
2023/04/10 13:05:57;;;;;;;24.25;3.67;;;;;;;;;;5112054;28;20027;-37
2023/04/10 13:08:24;;;;;;;19.48;3.80;;;;;;;;;;5111940;28;20051;-37
2023/04/10 13:10:52;;;;;;;18.27;3.78;;;;;;;;;;5111877;28;20442;-37
2023/04/10 13:13:19;;;;;;;22.70;3.95;;;;;;;;;;5112037;28;20047;-37
2023/04/10 13:15:46;;;;;;;21.08;3.70;;;;;;;;;;5112000;28;20034;-37
2023/04/10 13:18:13;;;;;;;21.40;3.75;;;;;;;;;;5111855;28;20434;-37
2023/04/10 13:20:41;;;;;;;21.90;3.53;;;;;;;;;;5111740;28;20051;-37
2023/04/10 13:23:08;;;;;;;17.90;3.58;;;;;;;;;;5111896;28;20515;-37
2023/04/10 13:25:38;;;;;;;20.88;3.50;;;;;;;;;;5111967;28;20027;-37
2023/04/10 13:28:09;;;;;;;20.45;3.95;;;;;;;;;;5111750;28;20034;-38
2023/04/10 13:30:37;;;;;;;18.20;3.42;;;;;;;;;;5111908;28;20036;-37
2023/04/10 13:33:04;;;;;;;23.55;4.25;;;;;;;;;;5110340;28;20434;-38
2023/04/10 13:35:31;;;;;;;15.13;3.72;;;;;;;;;;5111748;28;20048;-38
2023/04/10 13:37:59;;;;;;;16.65;3.92;;;;;;;;;;5111881;28;20540;-38
2023/04/10 13:40:26;;;;;;;18.23;3.80;;;;;;;;;;5111576;28;20059;-38
2023/04/10 13:42:53;;;;;;;17.30;4.20;;;;;;;;;;5111616;28;20043;-38
2023/04/10 13:45:19;;;;;;;19.30;4.18;;;;;;;;;;5111634;28;20055;-38
2023/04/10 13:47:46;;;;;;;14.75;3.38;;;;;;;;;;5111711;28;20020;-38
2023/04/10 13:50:14;;;;;;;18.00;3.58;;;;;;;;;;5111508;28;20043;-38
2023/04/10 13:52:41;;;;;;;22.15;3.92;;;;;;;;;;5111438;28;20039;-38
2023/04/10 13:55:08;;;;;;;22.33;3.80;;;;;;;;;;5111622;28;20069;-38
2023/04/10 13:57:35;;;;;;;18.77;3.65;;;;;;;;;;5115247;28;20024;-38
2023/04/10 14:00:03;;;;;;;18.33;3.83;;;;;;;;;;5115443;28;20034;-38
2023/04/10 14:02:30;;;;;;;20.65;4.30;;;;;;;;;;5115405;28;20123;-38
2023/04/10 14:04:57;;;;;;;18.80;3.80;;;;;;;;;;5115289;28;20027;-38
2023/04/10 14:07:24;;;;;;;18.83;3.42;;;;;;;;;;5115258;28;20045;-38
2023/04/10 14:09:51;;;;;;;21.40;4.35;;;;;;;;;;5115052;28;20781;-38
2023/04/10 14:12:18;;;;;;;19.10;3.72;;;;;;;;;;5113792;28;20024;-38
2023/04/10 14:14:45;;;;;;;22.58;3.55;;;;;;;;;;5115085;28;20024;-38
2023/04/10 14:17:12;;;;;;;20.60;3.70;;;;;;;;;;5115004;28;20489;-38
2023/04/10 14:19:39;;;;;;;23.08;3.97;;;;;;;;;;5114773;28;20054;-38
2023/04/10 14:22:06;;;;;;;17.05;3.50;;;;;;;;;;5115057;28;20504;-38
2023/04/10 14:24:33;;;;;;;24.75;3.25;;;;;;;;;;5114886;28;20072;-38
2023/04/10 14:27:00;;;;;;;18.20;3.60;;;;;;;;;;5113642;28;20027;-38
2023/04/10 14:29:28;;;;;;;19.20;3.80;;;;;;;;;;5114535;28;20611;-38
2023/04/10 14:31:55;;;;;;;22.77;4.10;;;;;;;;;;5114843;28;20028;-38
2023/04/10 14:34:22;;;;;;;20.23;3.45;;;;;;;;;;5114717;28;20035;-38
2023/04/10 14:36:54;;;;;;;13.65;3.20;;;;;;;;;;5114766;28;20031;-38
2023/04/10 14:39:22;;;;;;;26.38;3.58;;;;;;;;;;5114460;28;20027;-38
2023/04/10 14:41:49;;;;;;;21.08;3.53;;;;;;;;;;5114634;28;20024;-38
2023/04/10 14:44:16;;;;;;;18.83;3.65;;;;;;;;;;5113254;28;20366;-38
2023/04/10 14:46:44;;;;;;;19.35;3.38;;;;;;;;;;5113155;28;20495;-38
2023/04/10 14:49:12;;;;;;;14.13;3.33;;;;;;;;;;5114391;28;20036;-38